EJA401 KLBF-KASE
Flight info
| Callsign | EJA401 |
|---|---|
| Flight time | 1h 8m |
| Altitude | 30000 |
| Route | LYKKE WIINE SWNCN MMARY WERNR |
| Aircraft | CL60/M-SBDE1E2E3FGHIJ1J4J5J7M3RWXYZ/LB1V1D1 |
Departure
| Time | 2026-04-25 22:48 |
|---|---|
| Airport | North Platte Regional Airport Lee Bird Field (KLBF) |
Arrival
| Time | 2026-04-25 23:56 |
|---|---|
| Airport | Aspen-Pitkin County Airport (Sardy Field) (KASE) |
| Time | Latitude | Longitude | Altitude | Speed | Heading |
|---|---|---|---|---|---|
| 2026-04-25 22:17 | 41.13214 | -100.69637 | 2779 ft | 0 kts | 90° |
| 2026-04-25 22:38 | 41.13214 | -100.69636 | 2779 ft | 0 kts | 90° |
| 2026-04-25 22:38 | 41.13207 | -100.69603 | 2779 ft | 2 kts | 126° |
| 2026-04-25 22:38 | 41.13165 | -100.69575 | 2778 ft | 10 kts | 162° |
| 2026-04-25 22:38 | 41.13111 | -100.69509 | 2778 ft | 12 kts | 93° |
| 2026-04-25 22:39 | 41.13111 | -100.69390 | 2778 ft | 13 kts | 91° |
| 2026-04-25 22:39 | 41.13110 | -100.69256 | 2777 ft | 15 kts | 89° |
| 2026-04-25 22:39 | 41.13110 | -100.69164 | 2777 ft | 7 kts | 89° |
| 2026-04-25 22:39 | 41.13111 | -100.69138 | 2777 ft | 0 kts | 82° |
| 2026-04-25 22:46 | 41.13111 | -100.69134 | 2777 ft | 2 kts | 82° |
| 2026-04-25 22:47 | 41.13136 | -100.69084 | 2777 ft | 11 kts | 34° |
| 2026-04-25 22:47 | 41.13200 | -100.69005 | 2776 ft | 13 kts | 78° |
| 2026-04-25 22:47 | 41.13119 | -100.68829 | 2775 ft | 52 kts | 124° |
| 2026-04-25 22:47 | 41.12693 | -100.68053 | 2773 ft | 149 kts | 124° |
| 2026-04-25 22:48 | 41.11977 | -100.66856 | 3365 ft | 178 kts | 123° |
| 2026-04-25 22:48 | 41.11176 | -100.65703 | 4629 ft | 173 kts | 133° |
| 2026-04-25 22:48 | 41.10392 | -100.64551 | 5609 ft | 180 kts | 114° |
| 2026-04-25 22:48 | 41.10224 | -100.62861 | 6382 ft | 204 kts | 73° |
| 2026-04-25 22:49 | 41.10844 | -100.61146 | 7493 ft | 216 kts | 62° |
| 2026-04-25 22:49 | 41.11515 | -100.59403 | 8726 ft | 223 kts | 64° |
| 2026-04-25 22:49 | 41.12209 | -100.57537 | 9892 ft | 232 kts | 64° |
| 2026-04-25 22:49 | 41.12916 | -100.55621 | 11035 ft | 240 kts | 64° |
| 2026-04-25 22:50 | 41.13636 | -100.53661 | 12177 ft | 245 kts | 64° |
| 2026-04-25 22:50 | 41.14565 | -100.51815 | 13320 ft | 245 kts | 38° |
| 2026-04-25 22:50 | 41.16015 | -100.50890 | 14486 ft | 234 kts | 2° |
| 2026-04-25 22:50 | 41.17526 | -100.51197 | 15566 ft | 222 kts | 326° |
| 2026-04-25 22:51 | 41.18629 | -100.52576 | 16212 ft | 231 kts | 294° |
| 2026-04-25 22:51 | 41.18995 | -100.54748 | 16471 ft | 260 kts | 264° |
| 2026-04-25 22:51 | 41.18659 | -100.57247 | 16495 ft | 282 kts | 256° |
| 2026-04-25 22:51 | 41.18182 | -100.59750 | 16486 ft | 279 kts | 255° |
| 2026-04-25 22:52 | 41.17698 | -100.62233 | 16491 ft | 275 kts | 255° |
| 2026-04-25 22:52 | 41.17224 | -100.64670 | 16502 ft | 275 kts | 255° |
| 2026-04-25 22:52 | 41.16750 | -100.67113 | 16494 ft | 275 kts | 255° |
| 2026-04-25 22:52 | 41.16436 | -100.68737 | 16506 ft | 274 kts | 255° |
| 2026-04-25 22:53 | 41.15804 | -100.72012 | 16507 ft | 274 kts | 255° |
| 2026-04-25 22:53 | 41.15333 | -100.74473 | 16505 ft | 286 kts | 255° |
| 2026-04-25 22:53 | 41.14817 | -100.77154 | 16505 ft | 312 kts | 255° |
| 2026-04-25 22:53 | 41.14271 | -100.79995 | 16487 ft | 324 kts | 255° |
| 2026-04-25 22:54 | 41.13713 | -100.82906 | 16499 ft | 324 kts | 255° |
| 2026-04-25 22:54 | 41.13157 | -100.85803 | 16482 ft | 324 kts | 255° |
| 2026-04-25 22:54 | 41.12608 | -100.88667 | 16480 ft | 324 kts | 255° |
| 2026-04-25 22:54 | 41.12048 | -100.91576 | 16480 ft | 324 kts | 255° |
| 2026-04-25 22:55 | 41.11489 | -100.94475 | 16487 ft | 325 kts | 255° |
| 2026-04-25 22:55 | 41.10932 | -100.97365 | 16484 ft | 329 kts | 255° |
| 2026-04-25 22:55 | 41.10350 | -101.00397 | 17059 ft | 345 kts | 255° |
| 2026-04-25 22:55 | 41.09770 | -101.03416 | 18354 ft | 339 kts | 255° |
| 2026-04-25 22:56 | 41.09107 | -101.06316 | 19541 ft | 334 kts | 246° |
| 2026-04-25 22:56 | 41.07836 | -101.08864 | 20532 ft | 337 kts | 230° |
| 2026-04-25 22:56 | 41.06231 | -101.11133 | 21382 ft | 341 kts | 229° |
| 2026-04-25 22:56 | 41.04599 | -101.13427 | 22212 ft | 345 kts | 230° |
| 2026-04-25 22:57 | 41.02966 | -101.15725 | 22992 ft | 348 kts | 230° |
| 2026-04-25 22:57 | 41.01310 | -101.18057 | 23726 ft | 353 kts | 230° |
| 2026-04-25 22:57 | 40.99614 | -101.20441 | 24548 ft | 354 kts | 230° |
| 2026-04-25 22:57 | 40.97939 | -101.22792 | 25337 ft | 356 kts | 231° |
| 2026-04-25 22:58 | 40.96242 | -101.25176 | 26052 ft | 360 kts | 231° |
| 2026-04-25 22:58 | 40.94528 | -101.27581 | 26747 ft | 362 kts | 231° |
| 2026-04-25 22:58 | 40.92786 | -101.30022 | 27405 ft | 365 kts | 232° |
| 2026-04-25 22:58 | 40.91060 | -101.32440 | 28027 ft | 368 kts | 232° |
| 2026-04-25 22:59 | 40.89278 | -101.34935 | 28665 ft | 370 kts | 232° |
| 2026-04-25 22:59 | 40.87518 | -101.37396 | 29231 ft | 373 kts | 232° |
| 2026-04-25 22:59 | 40.85737 | -101.39886 | 29765 ft | 374 kts | 232° |
| 2026-04-25 22:59 | 40.83954 | -101.42374 | 29954 ft | 376 kts | 232° |
| 2026-04-25 23:00 | 40.80291 | -101.47485 | 29973 ft | 383 kts | 232° |
| 2026-04-25 23:00 | 40.76591 | -101.52631 | 29978 ft | 384 kts | 233° |
| 2026-04-25 23:01 | 40.72912 | -101.57743 | 29969 ft | 384 kts | 233° |
| 2026-04-25 23:01 | 40.69226 | -101.62854 | 29975 ft | 383 kts | 233° |
| 2026-04-25 23:02 | 40.65542 | -101.67955 | 29971 ft | 383 kts | 232° |
| 2026-04-25 23:02 | 40.61860 | -101.73045 | 29971 ft | 382 kts | 232° |
| 2026-04-25 23:03 | 40.58208 | -101.78084 | 29966 ft | 382 kts | 232° |
| 2026-04-25 23:03 | 40.54532 | -101.83151 | 29956 ft | 382 kts | 232° |
| 2026-04-25 23:04 | 40.51473 | -101.87358 | 29954 ft | 381 kts | 232° |
| 2026-04-25 23:04 | 40.47205 | -101.93220 | 29951 ft | 382 kts | 232° |
| 2026-04-25 23:05 | 40.43525 | -101.98266 | 29950 ft | 381 kts | 232° |
| 2026-04-25 23:05 | 40.39858 | -102.03285 | 29948 ft | 380 kts | 232° |
| 2026-04-25 23:06 | 40.36204 | -102.08277 | 29952 ft | 380 kts | 232° |
| 2026-04-25 23:06 | 40.32554 | -102.13257 | 29954 ft | 380 kts | 232° |
| 2026-04-25 23:07 | 40.28898 | -102.18235 | 29946 ft | 379 kts | 232° |
| 2026-04-25 23:07 | 40.25258 | -102.23183 | 29946 ft | 379 kts | 232° |
| 2026-04-25 23:08 | 40.21595 | -102.28157 | 29943 ft | 378 kts | 232° |
| 2026-04-25 23:08 | 40.17956 | -102.33087 | 29942 ft | 378 kts | 232° |
| 2026-04-25 23:09 | 40.14312 | -102.38017 | 29949 ft | 377 kts | 232° |
| 2026-04-25 23:09 | 40.10680 | -102.42922 | 29951 ft | 377 kts | 232° |
| 2026-04-25 23:10 | 40.07035 | -102.47837 | 29952 ft | 377 kts | 232° |
| 2026-04-25 23:10 | 40.03379 | -102.52760 | 29947 ft | 376 kts | 232° |
| 2026-04-25 23:11 | 39.99735 | -102.57658 | 29947 ft | 376 kts | 232° |
| 2026-04-25 23:11 | 39.96102 | -102.62531 | 29948 ft | 375 kts | 232° |
| 2026-04-25 23:12 | 39.92468 | -102.67400 | 29948 ft | 375 kts | 232° |
| 2026-04-25 23:12 | 39.88834 | -102.72261 | 29947 ft | 375 kts | 232° |
| 2026-04-25 23:13 | 39.85197 | -102.77118 | 29939 ft | 376 kts | 232° |
| 2026-04-25 23:13 | 39.81532 | -102.82005 | 29933 ft | 376 kts | 231° |
| 2026-04-25 23:14 | 39.77866 | -102.86884 | 29936 ft | 377 kts | 232° |
| 2026-04-25 23:14 | 39.74197 | -102.91760 | 29937 ft | 376 kts | 231° |
| 2026-04-25 23:15 | 39.70540 | -102.96611 | 29934 ft | 376 kts | 231° |
| 2026-04-25 23:15 | 39.66889 | -103.01448 | 29932 ft | 377 kts | 231° |
| 2026-04-25 23:16 | 39.63200 | -103.06328 | 29926 ft | 378 kts | 231° |
| 2026-04-25 23:16 | 39.59528 | -103.11176 | 29919 ft | 378 kts | 231° |
| 2026-04-25 23:17 | 39.55838 | -103.16040 | 29919 ft | 378 kts | 231° |
| 2026-04-25 23:17 | 39.52237 | -103.21004 | 29920 ft | 373 kts | 239° |
| 2026-04-25 23:18 | 39.51100 | -103.23945 | 29919 ft | 366 kts | 255° |
| 2026-04-25 23:18 | 39.50700 | -103.27200 | 29916 ft | 365 kts | 269° |
| 2026-04-25 23:18 | 39.51030 | -103.33740 | 29907 ft | 366 kts | 273° |
| 2026-04-25 23:19 | 39.51403 | -103.40314 | 29914 ft | 366 kts | 273° |
| 2026-04-25 23:19 | 39.51772 | -103.46894 | 29917 ft | 365 kts | 273° |
| 2026-04-25 23:20 | 39.52137 | -103.53463 | 29921 ft | 365 kts | 273° |
| 2026-04-25 23:20 | 39.52496 | -103.60003 | 29923 ft | 365 kts | 273° |
| 2026-04-25 23:21 | 39.52857 | -103.66632 | 29921 ft | 365 kts | 272° |
| 2026-04-25 23:21 | 39.53208 | -103.73170 | 29920 ft | 364 kts | 272° |
| 2026-04-25 23:22 | 39.53556 | -103.79723 | 29925 ft | 364 kts | 272° |
| 2026-04-25 23:23 | 39.54072 | -103.89542 | 29922 ft | 365 kts | 272° |
| 2026-04-25 23:23 | 39.54413 | -103.96124 | 29924 ft | 365 kts | 272° |
| 2026-04-25 23:24 | 39.54749 | -104.02686 | 29917 ft | 366 kts | 272° |
| 2026-04-25 23:24 | 39.55094 | -104.09238 | 29924 ft | 365 kts | 274° |
| 2026-04-25 23:25 | 39.55551 | -104.15786 | 29926 ft | 365 kts | 273° |
| 2026-04-25 23:25 | 39.56007 | -104.22343 | 29932 ft | 365 kts | 273° |
| 2026-04-25 23:26 | 39.56458 | -104.28883 | 29938 ft | 364 kts | 273° |
| 2026-04-25 23:26 | 39.56904 | -104.35422 | 29943 ft | 364 kts | 274° |
| 2026-04-25 23:27 | 39.57347 | -104.41959 | 29940 ft | 364 kts | 273° |
| 2026-04-25 23:27 | 39.57785 | -104.48501 | 29930 ft | 363 kts | 273° |
| 2026-04-25 23:28 | 39.58223 | -104.55097 | 29930 ft | 363 kts | 273° |
| 2026-04-25 23:28 | 39.58729 | -104.61626 | 29921 ft | 364 kts | 277° |
| 2026-04-25 23:29 | 39.59549 | -104.68151 | 29909 ft | 364 kts | 276° |
| 2026-04-25 23:29 | 39.60361 | -104.74622 | 29909 ft | 364 kts | 276° |
| 2026-04-25 23:30 | 39.61173 | -104.81141 | 29913 ft | 364 kts | 276° |
| 2026-04-25 23:30 | 39.61979 | -104.87624 | 29911 ft | 363 kts | 276° |
| 2026-04-25 23:31 | 39.62779 | -104.94093 | 29897 ft | 363 kts | 276° |
| 2026-04-25 23:31 | 39.63576 | -105.00567 | 29895 ft | 363 kts | 276° |
| 2026-04-25 23:32 | 39.64368 | -105.07031 | 29900 ft | 363 kts | 276° |
| 2026-04-25 23:32 | 39.65119 | -105.13506 | 29910 ft | 363 kts | 276° |
| 2026-04-25 23:33 | 39.65857 | -105.19993 | 29912 ft | 363 kts | 275° |
| 2026-04-25 23:33 | 39.66588 | -105.26463 | 29975 ft | 365 kts | 276° |
| 2026-04-25 23:34 | 39.67322 | -105.32985 | 29998 ft | 366 kts | 275° |
| 2026-04-25 23:34 | 39.68047 | -105.39504 | 30010 ft | 366 kts | 274° |
| 2026-04-25 23:34 | 39.68005 | -105.42798 | 30013 ft | 364 kts | 259° |
| 2026-04-25 23:35 | 39.67285 | -105.45954 | 30010 ft | 368 kts | 253° |
| 2026-04-25 23:35 | 39.65616 | -105.52274 | 29648 ft | 378 kts | 253° |
| 2026-04-25 23:35 | 39.64764 | -105.55514 | 29176 ft | 374 kts | 252° |
| 2026-04-25 23:36 | 39.63934 | -105.58662 | 28713 ft | 369 kts | 252° |
| 2026-04-25 23:36 | 39.63383 | -105.60753 | 28393 ft | 367 kts | 252° |
| 2026-04-25 23:36 | 39.62288 | -105.64901 | 27753 ft | 363 kts | 252° |
| 2026-04-25 23:36 | 39.61476 | -105.67969 | 27275 ft | 362 kts | 252° |
| 2026-04-25 23:37 | 39.60727 | -105.71088 | 26802 ft | 360 kts | 254° |
| 2026-04-25 23:37 | 39.60069 | -105.74190 | 26410 ft | 358 kts | 255° |
| 2026-04-25 23:37 | 39.59410 | -105.77290 | 26113 ft | 357 kts | 255° |
| 2026-04-25 23:37 | 39.58750 | -105.80391 | 25787 ft | 359 kts | 255° |
| 2026-04-25 23:38 | 39.58082 | -105.83524 | 25421 ft | 359 kts | 255° |
| 2026-04-25 23:38 | 39.57423 | -105.86612 | 25073 ft | 357 kts | 255° |
| 2026-04-25 23:38 | 39.56762 | -105.89703 | 24702 ft | 355 kts | 255° |
| 2026-04-25 23:38 | 39.56107 | -105.92763 | 24360 ft | 353 kts | 255° |
| 2026-04-25 23:39 | 39.55457 | -105.95798 | 24009 ft | 353 kts | 255° |
| 2026-04-25 23:39 | 39.54798 | -105.98868 | 23668 ft | 351 kts | 255° |
| 2026-04-25 23:39 | 39.54147 | -106.01901 | 23307 ft | 350 kts | 255° |
| 2026-04-25 23:39 | 39.53499 | -106.04915 | 22972 ft | 349 kts | 255° |
| 2026-04-25 23:40 | 39.53131 | -106.07969 | 22626 ft | 348 kts | 268° |
| 2026-04-25 23:40 | 39.53218 | -106.11097 | 22259 ft | 348 kts | 270° |
| 2026-04-25 23:40 | 39.53321 | -106.14235 | 21911 ft | 348 kts | 270° |
| 2026-04-25 23:40 | 39.53420 | -106.17370 | 21575 ft | 348 kts | 270° |
| 2026-04-25 23:41 | 39.53516 | -106.20463 | 21229 ft | 347 kts | 270° |
| 2026-04-25 23:41 | 39.53612 | -106.23576 | 20880 ft | 346 kts | 270° |
| 2026-04-25 23:41 | 39.53708 | -106.26712 | 20524 ft | 346 kts | 270° |
| 2026-04-25 23:41 | 39.53801 | -106.29816 | 20193 ft | 345 kts | 270° |
| 2026-04-25 23:42 | 39.53892 | -106.32866 | 19853 ft | 338 kts | 270° |
| 2026-04-25 23:42 | 39.53983 | -106.35869 | 19517 ft | 327 kts | 270° |
| 2026-04-25 23:42 | 39.54068 | -106.38733 | 19207 ft | 317 kts | 270° |
| 2026-04-25 23:42 | 39.54150 | -106.41541 | 18890 ft | 308 kts | 269° |
| 2026-04-25 23:43 | 39.54228 | -106.44287 | 18585 ft | 300 kts | 269° |
| 2026-04-25 23:43 | 39.54296 | -106.46984 | 18287 ft | 302 kts | 269° |
| 2026-04-25 23:43 | 39.54363 | -106.49691 | 17984 ft | 304 kts | 269° |
| 2026-04-25 23:43 | 39.54431 | -106.52419 | 17728 ft | 305 kts | 269° |
| 2026-04-25 23:44 | 39.54499 | -106.55161 | 17410 ft | 304 kts | 269° |
| 2026-04-25 23:44 | 39.54566 | -106.57900 | 17110 ft | 301 kts | 269° |
| 2026-04-25 23:44 | 39.54631 | -106.60593 | 16829 ft | 300 kts | 269° |
| 2026-04-25 23:44 | 39.54695 | -106.63274 | 16528 ft | 298 kts | 269° |
| 2026-04-25 23:45 | 39.54760 | -106.65963 | 16230 ft | 297 kts | 269° |
| 2026-04-25 23:45 | 39.54800 | -106.68604 | 16093 ft | 293 kts | 264° |
| 2026-04-25 23:45 | 39.54272 | -106.71118 | 16085 ft | 291 kts | 242° |
| 2026-04-25 23:45 | 39.53235 | -106.73373 | 16075 ft | 292 kts | 236° |
| 2026-04-25 23:46 | 39.52049 | -106.75494 | 16089 ft | 292 kts | 233° |
| 2026-04-25 23:46 | 39.50811 | -106.77621 | 15909 ft | 296 kts | 233° |
| 2026-04-25 23:46 | 39.49591 | -106.79723 | 15539 ft | 291 kts | 233° |
| 2026-04-25 23:46 | 39.48396 | -106.81779 | 15180 ft | 286 kts | 233° |
| 2026-04-25 23:47 | 39.47206 | -106.83826 | 14813 ft | 283 kts | 233° |
| 2026-04-25 23:47 | 39.46036 | -106.85837 | 14432 ft | 280 kts | 233° |
| 2026-04-25 23:47 | 39.44761 | -106.87701 | 14094 ft | 277 kts | 220° |
| 2026-04-25 23:47 | 39.43075 | -106.88880 | 13832 ft | 274 kts | 199° |
| 2026-04-25 23:48 | 39.41213 | -106.89178 | 13764 ft | 266 kts | 182° |
| 2026-04-25 23:48 | 39.39394 | -106.89003 | 13549 ft | 263 kts | 179° |
| 2026-04-25 23:48 | 39.37570 | -106.88809 | 13178 ft | 265 kts | 179° |
| 2026-04-25 23:48 | 39.35730 | -106.88616 | 12626 ft | 262 kts | 178° |
| 2026-04-25 23:49 | 39.34010 | -106.88431 | 12310 ft | 235 kts | 178° |
| 2026-04-25 23:49 | 39.32442 | -106.88266 | 11935 ft | 220 kts | 179° |
| 2026-04-25 23:49 | 39.30933 | -106.88111 | 11359 ft | 216 kts | 179° |
| 2026-04-25 23:49 | 39.29471 | -106.88133 | 10588 ft | 212 kts | 191° |
| 2026-04-25 23:50 | 39.28031 | -106.88480 | 9824 ft | 211 kts | 193° |
| 2026-04-25 23:50 | 39.26590 | -106.88605 | 9090 ft | 207 kts | 175° |
| 2026-04-25 23:50 | 39.25317 | -106.88158 | 8622 ft | 181 kts | 169° |
| 2026-04-25 23:50 | 39.24215 | -106.87678 | 8415 ft | 161 kts | 162° |
| 2026-04-25 23:51 | 39.23156 | -106.87149 | 8923 ft | 171 kts | 164° |
| 2026-04-25 23:51 | 39.21916 | -106.86649 | 9439 ft | 197 kts | 172° |
| 2026-04-25 23:51 | 39.20583 | -106.87031 | 10004 ft | 211 kts | 215° |
| 2026-04-25 23:51 | 39.19933 | -106.87918 | 10231 ft | 209 kts | 241° |
| 2026-04-25 23:52 | 39.19741 | -106.89753 | 10365 ft | 214 kts | 280° |
| 2026-04-25 23:52 | 39.20499 | -106.91389 | 10306 ft | 222 kts | 313° |
| 2026-04-25 23:52 | 39.21777 | -106.92519 | 9996 ft | 218 kts | 329° |
| 2026-04-25 23:52 | 39.23101 | -106.93300 | 10034 ft | 209 kts | 332° |
| 2026-04-25 23:53 | 39.24486 | -106.93926 | 10236 ft | 214 kts | 341° |
| 2026-04-25 23:53 | 39.25916 | -106.94486 | 10199 ft | 214 kts | 340° |
| 2026-04-25 23:53 | 39.27386 | -106.94910 | 10073 ft | 212 kts | 358° |
| 2026-04-25 23:53 | 39.28739 | -106.94302 | 10046 ft | 210 kts | 39° |
| 2026-04-25 23:54 | 39.29451 | -106.92763 | 9646 ft | 207 kts | 81° |
| 2026-04-25 23:54 | 39.29090 | -106.90900 | 9292 ft | 206 kts | 130° |
| 2026-04-25 23:54 | 39.28156 | -106.89687 | 8926 ft | 184 kts | 152° |
| 2026-04-25 23:54 | 39.27071 | -106.89084 | 8718 ft | 167 kts | 163° |
| 2026-04-25 23:55 | 39.26028 | -106.88635 | 8489 ft | 150 kts | 167° |
| 2026-04-25 23:55 | 39.25035 | -106.88193 | 8169 ft | 152 kts | 162° |
| 2026-04-25 23:55 | 39.24035 | -106.87696 | 7897 ft | 155 kts | 165° |
| 2026-04-25 23:55 | 39.23060 | -106.87237 | 7744 ft | 137 kts | 163° |
| 2026-04-25 23:56 | 39.22303 | -106.86877 | 7778 ft | 88 kts | 159° |
| 2026-04-25 23:56 | 39.22036 | -106.86746 | 7803 ft | 12 kts | 149° |
| 2026-04-25 23:56 | 39.22033 | -106.86660 | 7804 ft | 6 kts | 58° |
| 2026-04-25 23:56 | 39.22084 | -106.86650 | 7799 ft | 13 kts | 336° |
| 2026-04-25 23:57 | 39.22167 | -106.86690 | 7791 ft | 8 kts | 340° |
| 2026-04-25 23:57 | 39.22228 | -106.86718 | 7785 ft | 11 kts | 339° |
| 2026-04-25 23:57 | 39.22313 | -106.86759 | 7778 ft | 14 kts | 340° |
| 2026-04-25 23:57 | 39.22417 | -106.86808 | 7769 ft | 15 kts | 340° |
| 2026-04-25 23:58 | 39.22522 | -106.86858 | 7760 ft | 13 kts | 339° |
| 2026-04-25 23:58 | 39.22553 | -106.86875 | 7757 ft | 3 kts | 278° |
| 2026-04-25 23:58 | 39.22531 | -106.86871 | 7759 ft | 5 kts | 150° |
| 2026-04-25 23:58 | 39.22464 | -106.86830 | 7764 ft | 12 kts | 158° |
| 2026-04-25 23:59 | 39.22404 | -106.86788 | 7770 ft | 7 kts | 115° |
| 2026-04-25 23:59 | 39.22404 | -106.86762 | 7771 ft | 0 kts | 66° |